sensor_id;sensor_type;location;lat;lon;timestamp;pressure;altitude;pressure_sealevel;temperature;humidity
46886;BME280;32622;48.202;11.326;2023-05-20T00:00:46;1018.69;;;11.40;40.87
46886;BME280;32622;48.202;11.326;2023-05-20T00:02:49;1018.85;;;10.60;41.21
46886;BME280;32622;48.202;11.326;2023-05-20T00:04:52;1018.69;;;11.19;41.28
46886;BME280;32622;48.202;11.326;2023-05-20T00:06:55;1018.68;;;11.26;40.95
46886;BME280;32622;48.202;11.326;2023-05-20T00:08:58;1018.69;;;11.05;41.10
46886;BME280;32622;48.202;11.326;2023-05-20T00:11:01;1018.61;;;11.43;40.40
46886;BME280;32622;48.202;11.326;2023-05-20T00:13:05;1018.38;;;12.44;38.97
46886;BME280;32622;48.202;11.326;2023-05-20T00:15:09;1018.38;;;12.52;38.53
46886;BME280;32622;48.202;11.326;2023-05-20T00:17:12;1018.82;;;10.84;40.31
46886;BME280;32622;48.202;11.326;2023-05-20T00:19:15;1018.44;;;12.43;38.05
46886;BME280;32622;48.202;11.326;2023-05-20T00:21:17;1018.55;;;12.05;38.48
46886;BME280;32622;48.202;11.326;2023-05-20T00:23:20;1018.36;;;12.68;37.72
46886;BME280;32622;48.202;11.326;2023-05-20T00:25:23;1018.65;;;11.54;38.73
46886;BME280;32622;48.202;11.326;2023-05-20T00:27:26;1018.41;;;12.34;38.01
46886;BME280;32622;48.202;11.326;2023-05-20T00:29:29;1018.50;;;11.94;38.40
46886;BME280;32622;48.202;11.326;2023-05-20T00:31:32;1018.39;;;12.37;38.58
46886;BME280;32622;48.202;11.326;2023-05-20T00:33:35;1018.47;;;11.99;38.51
46886;BME280;32622;48.202;11.326;2023-05-20T00:35:38;1018.42;;;12.22;38.56
46886;BME280;32622;48.202;11.326;2023-05-20T00:37:41;1018.67;;;11.03;41.46
46886;BME280;32622;48.202;11.326;2023-05-20T00:39:44;1018.75;;;10.60;41.51
46886;BME280;32622;48.202;11.326;2023-05-20T00:41:47;1018.64;;;11.15;40.22
46886;BME280;32622;48.202;11.326;2023-05-20T00:43:52;1018.75;;;10.55;41.54
46886;BME280;32622;48.202;11.326;2023-05-20T00:45:55;1018.66;;;11.16;41.27
46886;BME280;32622;48.202;11.326;2023-05-20T00:47:58;1018.64;;;11.27;40.71
46886;BME280;32622;48.202;11.326;2023-05-20T00:50:02;1018.47;;;11.95;39.47
46886;BME280;32622;48.202;11.326;2023-05-20T00:52:06;1018.58;;;11.56;39.40
46886;BME280;32622;48.202;11.326;2023-05-20T00:54:09;1018.47;;;12.02;38.90
46886;BME280;32622;48.202;11.326;2023-05-20T00:56:13;1018.46;;;11.98;38.17
46886;BME280;32622;48.202;11.326;2023-05-20T00:58:17;1018.55;;;11.59;39.92
46886;BME280;32622;48.202;11.326;2023-05-20T01:00:20;1018.68;;;11.14;40.18
46886;BME280;32622;48.202;11.326;2023-05-20T01:02:23;1018.73;;;10.85;41.45
46886;BME280;32622;48.202;11.326;2023-05-20T01:04:26;1018.81;;;10.53;42.16
46886;BME280;32622;48.202;11.326;2023-05-20T01:06:29;1018.53;;;11.72;40.00
46886;BME280;32622;48.202;11.326;2023-05-20T01:08:32;1018.53;;;11.62;39.98
46886;BME280;32622;48.202;11.326;2023-05-20T01:10:40;1018.51;;;11.59;39.59
46886;BME280;32622;48.202;11.326;2023-05-20T01:12:47;1018.55;;;11.40;39.29
46886;BME280;32622;48.202;11.326;2023-05-20T01:14:55;1018.64;;;10.85;41.30
46886;BME280;32622;48.202;11.326;2023-05-20T01:17:01;1018.74;;;10.09;42.05
46886;BME280;32622;48.202;11.326;2023-05-20T01:19:13;1018.68;;;10.17;42.26
46886;BME280;32622;48.202;11.326;2023-05-20T01:21:20;1018.48;;;10.97;41.11
46886;BME280;32622;48.202;11.326;2023-05-20T01:23:33;1018.78;;;9.56;43.34
46886;BME280;32622;48.202;11.326;2023-05-20T01:25:39;1018.50;;;10.87;42.24
46886;BME280;32622;48.202;11.326;2023-05-20T01:27:43;1018.97;;;8.84;45.86
46886;BME280;32622;48.202;11.326;2023-05-20T01:29:46;1018.87;;;9.41;46.07
46886;BME280;32622;48.202;11.326;2023-05-20T01:31:52;1019.15;;;8.10;47.51
46886;BME280;32622;48.202;11.326;2023-05-20T01:33:56;1018.75;;;9.93;44.61
46886;BME280;32622;48.202;11.326;2023-05-20T01:36:00;1018.77;;;9.76;45.58
46886;BME280;32622;48.202;11.326;2023-05-20T01:38:05;1018.99;;;8.81;47.60
46886;BME280;32622;48.202;11.326;2023-05-20T01:40:11;1018.71;;;9.91;44.76
46886;BME280;32622;48.202;11.326;2023-05-20T01:42:16;1018.88;;;8.92;46.56
46886;BME280;32622;48.202;11.326;2023-05-20T01:44:20;1018.86;;;8.92;47.01
46886;BME280;32622;48.202;11.326;2023-05-20T01:46:23;1018.88;;;8.58;48.29
46886;BME280;32622;48.202;11.326;2023-05-20T01:48:26;1019.20;;;7.42;50.08
46886;BME280;32622;48.202;11.326;2023-05-20T01:50:29;1018.72;;;9.19;47.44
46886;BME280;32622;48.202;11.326;2023-05-20T01:52:33;1018.57;;;9.75;46.41
46886;BME280;32622;48.202;11.326;2023-05-20T01:54:36;1018.90;;;8.71;47.62
46886;BME280;32622;48.202;11.326;2023-05-20T01:56:39;1019.01;;;8.13;48.55
46886;BME280;32622;48.202;11.326;2023-05-20T01:58:42;1018.91;;;8.62;47.25
46886;BME280;32622;48.202;11.326;2023-05-20T02:00:45;1018.88;;;8.87;46.42
46886;BME280;32622;48.202;11.326;2023-05-20T02:02:48;1018.93;;;8.62;47.71
46886;BME280;32622;48.202;11.326;2023-05-20T02:04:52;1018.96;;;8.50;47.35
46886;BME280;32622;48.202;11.326;2023-05-20T02:06:56;1018.97;;;8.46;48.51
46886;BME280;32622;48.202;11.326;2023-05-20T02:08:59;1018.82;;;9.09;46.43
46886;BME280;32622;48.202;11.326;2023-05-20T02:11:02;1018.79;;;9.37;45.75
46886;BME280;32622;48.202;11.326;2023-05-20T02:13:05;1018.90;;;9.01;46.63
46886;BME280;32622;48.202;11.326;2023-05-20T02:15:09;1019.13;;;8.04;49.20
46886;BME280;32622;48.202;11.326;2023-05-20T02:17:13;1018.72;;;9.59;46.69
46886;BME280;32622;48.202;11.326;2023-05-20T02:19:16;1018.61;;;9.99;45.12
46886;BME280;32622;48.202;11.326;2023-05-20T02:21:19;1018.51;;;10.22;44.54
46886;BME280;32622;48.202;11.326;2023-05-20T02:23:22;1018.57;;;9.75;44.25
46886;BME280;32622;48.202;11.326;2023-05-20T02:25:25;1019.00;;;8.07;47.16
46886;BME280;32622;48.202;11.326;2023-05-20T02:27:28;1018.48;;;10.12;44.80
46886;BME280;32622;48.202;11.326;2023-05-20T02:29:31;1018.40;;;10.08;43.90
46886;BME280;32622;48.202;11.326;2023-05-20T02:31:34;1018.76;;;8.41;46.56
46886;BME280;32622;48.202;11.326;2023-05-20T02:33:37;1018.60;;;9.38;47.21
46886;BME280;32622;48.202;11.326;2023-05-20T02:35:40;1018.71;;;9.19;46.02
46886;BME280;32622;48.202;11.326;2023-05-20T02:37:44;1018.47;;;10.41;44.62
46886;BME280;32622;48.202;11.326;2023-05-20T02:39:47;1018.74;;;9.03;46.64
46886;BME280;32622;48.202;11.326;2023-05-20T02:41:50;1018.61;;;9.83;46.16
46886;BME280;32622;48.202;11.326;2023-05-20T02:43:53;1019.05;;;7.65;48.83
46886;BME280;32622;48.202;11.326;2023-05-20T02:45:56;1018.43;;;10.15;44.63
46886;BME280;32622;48.202;11.326;2023-05-20T02:47:59;1018.61;;;9.39;46.15
46886;BME280;32622;48.202;11.326;2023-05-20T02:50:03;1018.33;;;10.47;44.08
46886;BME280;32622;48.202;11.326;2023-05-20T02:52:06;1018.40;;;10.24;44.03
46886;BME280;32622;48.202;11.326;2023-05-20T02:54:10;1018.82;;;8.66;47.09
46886;BME280;32622;48.202;11.326;2023-05-20T02:56:14;1018.59;;;9.81;46.06
46886;BME280;32622;48.202;11.326;2023-05-20T02:58:17;1018.70;;;9.47;46.02
46886;BME280;32622;48.202;11.326;2023-05-20T03:00:20;1018.62;;;9.76;44.11
46886;BME280;32622;48.202;11.326;2023-05-20T03:02:23;1018.36;;;10.82;43.22
46886;BME280;32622;48.202;11.326;2023-05-20T03:04:26;1018.61;;;9.93;44.25
46886;BME280;32622;48.202;11.326;2023-05-20T03:06:29;1018.45;;;10.72;42.70
46886;BME280;32622;48.202;11.326;2023-05-20T03:08:32;1018.18;;;11.83;41.41
46886;BME280;32622;48.202;11.326;2023-05-20T03:10:36;1018.45;;;10.72;42.40
46886;BME280;32622;48.202;11.326;2023-05-20T03:12:39;1018.24;;;11.68;41.19
46886;BME280;32622;48.202;11.326;2023-05-20T03:14:42;1018.20;;;11.74;40.28
46886;BME280;32622;48.202;11.326;2023-05-20T03:16:45;1018.43;;;10.90;41.30
46886;BME280;32622;48.202;11.326;2023-05-20T03:18:48;1018.18;;;11.86;40.19
46886;BME280;32622;48.202;11.326;2023-05-20T03:20:52;1018.12;;;12.04;39.41
46886;BME280;32622;48.202;11.326;2023-05-20T03:22:55;1017.94;;;12.70;39.49
46886;BME280;32622;48.202;11.326;2023-05-20T03:24:58;1018.54;;;10.09;43.03
46886;BME280;32622;48.202;11.326;2023-05-20T03:27:01;1018.85;;;8.98;45.20
46886;BME280;32622;48.202;11.326;2023-05-20T03:29:04;1018.41;;;10.56;43.05
46886;BME280;32622;48.202;11.326;2023-05-20T03:31:08;1018.71;;;9.29;45.98
46886;BME280;32622;48.202;11.326;2023-05-20T03:33:11;1018.61;;;9.42;46.39
46886;BME280;32622;48.202;11.326;2023-05-20T03:35:15;1018.73;;;8.81;47.28
46886;BME280;32622;48.202;11.326;2023-05-20T03:37:18;1018.57;;;9.68;45.64
46886;BME280;32622;48.202;11.326;2023-05-20T03:39:22;1018.81;;;8.82;47.45
46886;BME280;32622;48.202;11.326;2023-05-20T03:41:26;1018.54;;;10.00;45.34
46886;BME280;32622;48.202;11.326;2023-05-20T03:43:29;1018.89;;;8.68;47.76
46886;BME280;32622;48.202;11.326;2023-05-20T03:45:32;1018.59;;;10.09;45.38
46886;BME280;32622;48.202;11.326;2023-05-20T03:47:35;1018.60;;;10.01;44.51
46886;BME280;32622;48.202;11.326;2023-05-20T03:49:38;1018.46;;;10.58;43.37
46886;BME280;32622;48.202;11.326;2023-05-20T03:51:41;1018.29;;;11.62;42.23
46886;BME280;32622;48.202;11.326;2023-05-20T03:53:44;1018.55;;;10.38;43.94
46886;BME280;32622;48.202;11.326;2023-05-20T03:55:47;1018.88;;;9.06;46.50
46886;BME280;32622;48.202;11.326;2023-05-20T03:57:50;1018.69;;;9.79;45.05
46886;BME280;32622;48.202;11.326;2023-05-20T03:59:53;1018.87;;;9.05;46.49
46886;BME280;32622;48.202;11.326;2023-05-20T04:01:56;1018.89;;;8.79;47.66
46886;BME280;32622;48.202;11.326;2023-05-20T04:03:59;1018.58;;;10.12;45.15
46886;BME280;32622;48.202;11.326;2023-05-20T04:06:03;1019.06;;;8.03;49.12
46886;BME280;32622;48.202;11.326;2023-05-20T04:08:06;1018.94;;;8.52;47.71
46886;BME280;32622;48.202;11.326;2023-05-20T04:10:10;1018.85;;;8.78;49.12
46886;BME280;32622;48.202;11.326;2023-05-20T04:12:13;1018.74;;;9.00;48.50
46886;BME280;32622;48.202;11.326;2023-05-20T04:14:16;1018.58;;;9.57;46.45
46886;BME280;32622;48.202;11.326;2023-05-20T04:16:20;1018.53;;;9.66;46.79
46886;BME280;32622;48.202;11.326;2023-05-20T04:18:22;1018.44;;;9.84;45.58
46886;BME280;32622;48.202;11.326;2023-05-20T04:20:26;1018.36;;;10.14;44.56
46886;BME280;32622;48.202;11.326;2023-05-20T04:22:29;1018.50;;;9.82;45.52
46886;BME280;32622;48.202;11.326;2023-05-20T04:24:32;1018.30;;;10.63;44.03
46886;BME280;32622;48.202;11.326;2023-05-20T04:26:35;1018.26;;;10.69;44.41
46886;BME280;32622;48.202;11.326;2023-05-20T04:28:38;1018.35;;;10.37;44.59
46886;BME280;32622;48.202;11.326;2023-05-20T04:30:42;1018.27;;;10.50;44.39
46886;BME280;32622;48.202;11.326;2023-05-20T04:32:45;1018.70;;;8.78;47.66
46886;BME280;32622;48.202;11.326;2023-05-20T04:34:48;1018.50;;;9.87;46.93
46886;BME280;32622;48.202;11.326;2023-05-20T04:36:51;1018.75;;;8.81;49.30
46886;BME280;32622;48.202;11.326;2023-05-20T04:38:54;1018.70;;;8.98;48.99
46886;BME280;32622;48.202;11.326;2023-05-20T04:40:57;1018.48;;;9.82;47.71
46886;BME280;32622;48.202;11.326;2023-05-20T04:43:00;1019.17;;;7.03;52.22
46886;BME280;32622;48.202;11.326;2023-05-20T04:45:04;1019.11;;;7.38;53.40
46886;BME280;32622;48.202;11.326;2023-05-20T04:47:07;1019.19;;;7.03;54.24
46886;BME280;32622;48.202;11.326;2023-05-20T04:49:11;1019.17;;;7.05;54.07
46886;BME280;32622;48.202;11.326;2023-05-20T04:51:14;1019.21;;;6.90;52.81
46886;BME280;32622;48.202;11.326;2023-05-20T04:53:17;1018.86;;;8.01;51.66
46886;BME280;32622;48.202;11.326;2023-05-20T04:55:21;1018.70;;;8.68;49.69
46886;BME280;32622;48.202;11.326;2023-05-20T04:57:24;1018.71;;;8.64;49.93
46886;BME280;32622;48.202;11.326;2023-05-20T04:59:27;1018.67;;;8.85;48.88
46886;BME280;32622;48.202;11.326;2023-05-20T05:01:30;1018.75;;;8.48;49.13
46886;BME280;32622;48.202;11.326;2023-05-20T05:03:33;1018.52;;;9.45;47.01
46886;BME280;32622;48.202;11.326;2023-05-20T05:05:36;1018.50;;;9.52;46.63
46886;BME280;32622;48.202;11.326;2023-05-20T05:07:39;1018.69;;;8.53;49.21
46886;BME280;32622;48.202;11.326;2023-05-20T05:09:42;1018.59;;;8.90;48.18
46886;BME280;32622;48.202;11.326;2023-05-20T05:11:45;1018.54;;;9.40;47.41
46886;BME280;32622;48.202;11.326;2023-05-20T05:13:48;1018.50;;;9.70;46.29
46886;BME280;32622;48.202;11.326;2023-05-20T05:15:58;1018.50;;;9.64;45.95
46886;BME280;32622;48.202;11.326;2023-05-20T05:18:01;1018.75;;;8.61;48.06
46886;BME280;32622;48.202;11.326;2023-05-20T05:20:05;1018.63;;;9.38;47.08
46886;BME280;32622;48.202;11.326;2023-05-20T05:22:08;1018.65;;;9.15;47.14
46886;BME280;32622;48.202;11.326;2023-05-20T05:24:12;1018.75;;;8.68;47.67
46886;BME280;32622;48.202;11.326;2023-05-20T05:26:15;1018.64;;;9.04;47.51
46886;BME280;32622;48.202;11.326;2023-05-20T05:28:18;1018.80;;;8.18;49.15
46886;BME280;32622;48.202;11.326;2023-05-20T05:30:21;1018.54;;;9.24;47.64
46886;BME280;32622;48.202;11.326;2023-05-20T05:32:25;1018.80;;;8.25;50.45
46886;BME280;32622;48.202;11.326;2023-05-20T05:34:28;1018.60;;;8.84;49.58
46886;BME280;32622;48.202;11.326;2023-05-20T05:36:33;1018.77;;;8.05;50.00
46886;BME280;32622;48.202;11.326;2023-05-20T05:38:36;1018.89;;;7.71;50.93
46886;BME280;32622;48.202;11.326;2023-05-20T05:40:39;1018.51;;;9.22;49.47
46886;BME280;32622;48.202;11.326;2023-05-20T05:42:42;1019.21;;;6.72;53.39
46886;BME280;32622;48.202;11.326;2023-05-20T05:44:46;1018.85;;;7.92;52.10
46886;BME280;32622;48.202;11.326;2023-05-20T05:46:50;1018.59;;;8.99;49.56
46886;BME280;32622;48.202;11.326;2023-05-20T05:48:53;1018.60;;;9.07;49.05
46886;BME280;32622;48.202;11.326;2023-05-20T05:50:56;1018.77;;;8.57;48.61
46886;BME280;32622;48.202;11.326;2023-05-20T05:52:59;1019.13;;;7.31;52.36
46886;BME280;32622;48.202;11.326;2023-05-20T05:55:02;1018.76;;;8.66;49.06
46886;BME280;32622;48.202;11.326;2023-05-20T05:57:05;1018.76;;;8.78;49.20
46886;BME280;32622;48.202;11.326;2023-05-20T05:59:08;1018.69;;;9.38;48.14
46886;BME280;32622;48.202;11.326;2023-05-20T06:01:11;1018.47;;;10.11;46.19
46886;BME280;32622;48.202;11.326;2023-05-20T06:03:14;1018.33;;;10.59;44.87
46886;BME280;32622;48.202;11.326;2023-05-20T06:05:17;1018.65;;;9.17;46.96
46886;BME280;32622;48.202;11.326;2023-05-20T06:07:21;1018.33;;;10.28;44.80
46886;BME280;32622;48.202;11.326;2023-05-20T06:09:25;1018.32;;;10.17;44.96
46886;BME280;32622;48.202;11.326;2023-05-20T06:11:28;1018.26;;;10.60;44.09
46886;BME280;32622;48.202;11.326;2023-05-20T06:13:30;1018.59;;;9.36;45.61
46886;BME280;32622;48.202;11.326;2023-05-20T06:15:33;1019.20;;;7.13;51.27
46886;BME280;32622;48.202;11.326;2023-05-20T06:17:35;1018.59;;;9.68;47.24
46886;BME280;32622;48.202;11.326;2023-05-20T06:19:37;1018.86;;;8.53;48.24
46886;BME280;32622;48.202;11.326;2023-05-20T06:21:40;1018.79;;;8.59;48.90
46886;BME280;32622;48.202;11.326;2023-05-20T06:23:42;1018.66;;;9.00;47.70
46886;BME280;32622;48.202;11.326;2023-05-20T06:25:44;1018.56;;;9.26;47.64
46886;BME280;32622;48.202;11.326;2023-05-20T06:27:48;1018.68;;;8.77;47.99
46886;BME280;32622;48.202;11.326;2023-05-20T06:29:51;1018.61;;;9.07;47.47
46886;BME280;32622;48.202;11.326;2023-05-20T06:31:54;1018.54;;;9.50;46.40
46886;BME280;32622;48.202;11.326;2023-05-20T06:33:56;1018.39;;;9.78;45.94
46886;BME280;32622;48.202;11.326;2023-05-20T06:35:59;1018.44;;;9.59;46.24
46886;BME280;32622;48.202;11.326;2023-05-20T06:38:02;1018.21;;;10.43;44.62
46886;BME280;32622;48.202;11.326;2023-05-20T06:40:06;1018.34;;;9.90;45.43
46886;BME280;32622;48.202;11.326;2023-05-20T06:42:09;1018.27;;;10.21;45.55
46886;BME280;32622;48.202;11.326;2023-05-20T06:44:12;1018.20;;;10.55;44.61
46886;BME280;32622;48.202;11.326;2023-05-20T06:46:15;1018.40;;;9.88;45.36
46886;BME280;32622;48.202;11.326;2023-05-20T06:48:17;1018.19;;;10.77;43.41
46886;BME280;32622;48.202;11.326;2023-05-20T06:50:20;1018.09;;;11.38;42.52
46886;BME280;32622;48.202;11.326;2023-05-20T06:52:23;1018.01;;;11.78;41.70
46886;BME280;32622;48.202;11.326;2023-05-20T06:54:26;1018.25;;;10.55;42.91
46886;BME280;32622;48.202;11.326;2023-05-20T06:56:29;1018.27;;;10.44;43.20
46886;BME280;32622;48.202;11.326;2023-05-20T06:58:32;1017.89;;;11.94;41.06
46886;BME280;32622;48.202;11.326;2023-05-20T07:00:35;1017.85;;;11.99;40.66
46886;BME280;32622;48.202;11.326;2023-05-20T07:02:38;1017.65;;;12.43;40.48
46886;BME280;32622;48.202;11.326;2023-05-20T07:04:41;1017.66;;;12.30;39.42
46886;BME280;32622;48.202;11.326;2023-05-20T07:06:44;1017.58;;;12.52;39.58
46886;BME280;32622;48.202;11.326;2023-05-20T07:08:47;1018.18;;;10.07;41.62
46886;BME280;32622;48.202;11.326;2023-05-20T07:10:54;1018.01;;;10.94;41.17
46886;BME280;32622;48.202;11.326;2023-05-20T07:12:57;1017.92;;;11.53;41.00
46886;BME280;32622;48.202;11.326;2023-05-20T07:15:00;1017.85;;;11.54;41.55
46886;BME280;32622;48.202;11.326;2023-05-20T07:17:04;1017.82;;;11.55;41.70
46886;BME280;32622;48.202;11.326;2023-05-20T07:19:07;1017.71;;;11.92;40.99
46886;BME280;32622;48.202;11.326;2023-05-20T07:21:09;1018.41;;;8.90;46.03
46886;BME280;32622;48.202;11.326;2023-05-20T07:23:12;1018.18;;;9.70;45.19
46886;BME280;32622;48.202;11.326;2023-05-20T07:25:15;1017.76;;;11.60;42.60
46886;BME280;32622;48.202;11.326;2023-05-20T07:27:18;1017.89;;;10.90;43.15
46886;BME280;32622;48.202;11.326;2023-05-20T07:29:21;1018.15;;;9.70;44.75
46886;BME280;32622;48.202;11.326;2023-05-20T07:31:24;1017.81;;;11.15;43.66
46886;BME280;32622;48.202;11.326;2023-05-20T07:33:27;1017.90;;;10.88;43.14
46886;BME280;32622;48.202;11.326;2023-05-20T07:35:30;1018.30;;;9.30;46.28
46886;BME280;32622;48.202;11.326;2023-05-20T07:37:33;1018.27;;;9.37;46.71
46886;BME280;32622;48.202;11.326;2023-05-20T07:39:36;1018.07;;;10.00;45.78
46886;BME280;32622;48.202;11.326;2023-05-20T07:41:39;1018.12;;;9.97;44.71
46886;BME280;32622;48.202;11.326;2023-05-20T07:43:42;1018.38;;;8.91;46.54
46886;BME280;32622;48.202;11.326;2023-05-20T07:45:45;1018.37;;;9.16;46.00
46886;BME280;32622;48.202;11.326;2023-05-20T07:47:48;1017.96;;;10.72;43.98
46886;BME280;32622;48.202;11.326;2023-05-20T07:49:51;1017.70;;;12.01;41.56
46886;BME280;32622;48.202;11.326;2023-05-20T07:51:54;1018.08;;;10.17;44.83
46886;BME280;32622;48.202;11.326;2023-05-20T07:53:57;1018.00;;;10.59;43.55
46886;BME280;32622;48.202;11.326;2023-05-20T07:56:00;1018.18;;;9.65;43.76
46886;BME280;32622;48.202;11.326;2023-05-20T07:58:03;1018.44;;;8.39;47.67
46886;BME280;32622;48.202;11.326;2023-05-20T08:00:07;1017.96;;;10.36;44.43
46886;BME280;32622;48.202;11.326;2023-05-20T08:02:10;1017.95;;;10.57;43.82
46886;BME280;32622;48.202;11.326;2023-05-20T08:04:14;1017.66;;;11.84;41.12
46886;BME280;32622;48.202;11.326;2023-05-20T08:06:18;1017.58;;;12.03;40.94
46886;BME280;32622;48.202;11.326;2023-05-20T08:08:21;1017.62;;;11.87;41.24
46886;BME280;32622;48.202;11.326;2023-05-20T08:10:23;1017.63;;;11.78;40.72
46886;BME280;32622;48.202;11.326;2023-05-20T08:12:26;1017.36;;;12.70;39.66
46886;BME280;32622;48.202;11.326;2023-05-20T08:14:29;1017.34;;;12.74;39.26
46886;BME280;32622;48.202;11.326;2023-05-20T08:16:32;1017.82;;;10.96;42.14
46886;BME280;32622;48.202;11.326;2023-05-20T08:18:35;1017.44;;;12.31;40.49
46886;BME280;32622;48.202;11.326;2023-05-20T08:20:38;1017.32;;;12.59;39.63
46886;BME280;32622;48.202;11.326;2023-05-20T08:22:41;1017.25;;;12.70;38.48
46886;BME280;32622;48.202;11.326;2023-05-20T08:24:44;1017.02;;;13.63;37.52
46886;BME280;32622;48.202;11.326;2023-05-20T08:26:47;1017.26;;;12.49;38.77
46886;BME280;32622;48.202;11.326;2023-05-20T08:28:50;1017.14;;;13.11;38.85
46886;BME280;32622;48.202;11.326;2023-05-20T08:30:53;1017.33;;;12.26;39.58
46886;BME280;32622;48.202;11.326;2023-05-20T08:32:56;1017.27;;;12.60;39.55
46886;BME280;32622;48.202;11.326;2023-05-20T08:34:59;1017.27;;;12.47;39.29
46886;BME280;32622;48.202;11.326;2023-05-20T08:37:02;1017.18;;;12.69;39.33
46886;BME280;32622;48.202;11.326;2023-05-20T08:39:05;1017.55;;;11.31;41.60
46886;BME280;32622;48.202;11.326;2023-05-20T08:41:08;1017.19;;;12.69;39.11
46886;BME280;32622;48.202;11.326;2023-05-20T08:43:11;1017.64;;;11.00;41.72
46886;BME280;32622;48.202;11.326;2023-05-20T08:45:17;1017.49;;;11.59;41.36
46886;BME280;32622;48.202;11.326;2023-05-20T08:47:20;1017.15;;;12.79;39.82
46886;BME280;32622;48.202;11.326;2023-05-20T08:49:23;1017.41;;;11.72;40.19
46886;BME280;32622;48.202;11.326;2023-05-20T08:51:27;1016.91;;;13.65;38.59
46886;BME280;32622;48.202;11.326;2023-05-20T08:53:31;1017.19;;;12.40;39.37
46886;BME280;32622;48.202;11.326;2023-05-20T08:55:40;1016.84;;;13.87;37.79
46886;BME280;32622;48.202;11.326;2023-05-20T08:57:44;1016.51;;;15.11;36.75
46886;BME280;32622;48.202;11.326;2023-05-20T08:59:47;1016.78;;;13.92;36.19
46886;BME280;32622;48.202;11.326;2023-05-20T09:01:52;1016.55;;;14.95;35.65
46886;BME280;32622;48.202;11.326;2023-05-20T09:03:54;1016.69;;;14.01;35.99
46886;BME280;32622;48.202;11.326;2023-05-20T09:06:03;1016.34;;;15.46;35.04
46886;BME280;32622;48.202;11.326;2023-05-20T09:08:07;1016.49;;;15.06;35.82
46886;BME280;32622;48.202;11.326;2023-05-20T09:10:10;1016.46;;;15.31;34.75
46886;BME280;32622;48.202;11.326;2023-05-20T09:12:14;1016.63;;;14.72;36.54
46886;BME280;32622;48.202;11.326;2023-05-20T09:14:17;1016.92;;;13.61;36.78
46886;BME280;32622;48.202;11.326;2023-05-20T09:16:19;1016.69;;;14.66;35.49
46886;BME280;32622;48.202;11.326;2023-05-20T09:18:22;1016.44;;;15.85;34.42
46886;BME280;32622;48.202;11.326;2023-05-20T09:20:25;1016.39;;;15.91;33.81
46886;BME280;32622;48.202;11.326;2023-05-20T09:22:28;1016.42;;;15.83;33.14
46886;BME280;32622;48.202;11.326;2023-05-20T09:24:31;1016.21;;;16.57;33.28
46886;BME280;32622;48.202;11.326;2023-05-20T09:26:35;1016.55;;;15.19;33.77
46886;BME280;32622;48.202;11.326;2023-05-20T09:28:37;1016.39;;;16.10;33.38
46886;BME280;32622;48.202;11.326;2023-05-20T09:30:40;1016.09;;;17.08;33.72
46886;BME280;32622;48.202;11.326;2023-05-20T09:32:43;1015.95;;;17.04;34.06
46886;BME280;32622;48.202;11.326;2023-05-20T09:34:46;1016.06;;;16.60;32.11
46886;BME280;32622;48.202;11.326;2023-05-20T09:36:50;1016.33;;;15.71;33.70
46886;BME280;32622;48.202;11.326;2023-05-20T09:38:56;1016.59;;;14.53;35.31
46886;BME280;32622;48.202;11.326;2023-05-20T09:41:01;1016.69;;;14.31;36.55
46886;BME280;32622;48.202;11.326;2023-05-20T09:43:05;1016.39;;;15.62;34.81
46886;BME280;32622;48.202;11.326;2023-05-20T09:45:09;1016.67;;;14.39;35.58
46886;BME280;32622;48.202;11.326;2023-05-20T09:47:13;1016.28;;;15.79;34.76
46886;BME280;32622;48.202;11.326;2023-05-20T09:49:17;1015.93;;;17.14;33.54
46886;BME280;32622;48.202;11.326;2023-05-20T09:51:21;1015.90;;;17.14;33.22
46886;BME280;32622;48.202;11.326;2023-05-20T09:53:26;1016.41;;;14.60;35.75
46886;BME280;32622;48.202;11.326;2023-05-20T09:55:30;1016.15;;;15.96;35.29
46886;BME280;32622;48.202;11.326;2023-05-20T09:57:34;1016.04;;;16.35;33.85
46886;BME280;32622;48.202;11.326;2023-05-20T09:59:37;1016.29;;;15.08;35.23
46886;BME280;32622;48.202;11.326;2023-05-20T10:01:40;1016.15;;;15.59;34.97
46886;BME280;32622;48.202;11.326;2023-05-20T10:03:44;1016.39;;;14.36;36.21
46886;BME280;32622;48.202;11.326;2023-05-20T10:05:51;1016.75;;;13.06;38.89
46886;BME280;32622;48.202;11.326;2023-05-20T10:08:14;1016.72;;;13.16;38.52
46886;BME280;32622;48.202;11.326;2023-05-20T10:10:28;1016.47;;;14.00;37.53
46886;BME280;32622;48.202;11.326;2023-05-20T10:12:48;1016.39;;;14.43;38.75
46886;BME280;32622;48.202;11.326;2023-05-20T10:15:01;1016.18;;;15.07;36.07
46886;BME280;32622;48.202;11.326;2023-05-20T10:17:11;1016.20;;;15.03;36.59
46886;BME280;32622;48.202;11.326;2023-05-20T10:19:26;1016.37;;;14.24;38.36
46886;BME280;32622;48.202;11.326;2023-05-20T10:21:29;1016.29;;;14.62;37.58
46886;BME280;32622;48.202;11.326;2023-05-20T10:23:33;1016.20;;;15.07;36.88
46886;BME280;32622;48.202;11.326;2023-05-20T10:25:36;1016.33;;;14.26;37.11
46886;BME280;32622;48.202;11.326;2023-05-20T10:27:43;1016.37;;;14.78;37.11
46886;BME280;32622;48.202;11.326;2023-05-20T10:29:50;1016.18;;;14.76;37.42
46886;BME280;32622;48.202;11.326;2023-05-20T10:31:54;1016.16;;;14.89;36.44
46886;BME280;32622;48.202;11.326;2023-05-20T10:33:58;1016.06;;;15.15;35.84
46886;BME280;32622;48.202;11.326;2023-05-20T10:36:01;1016.41;;;13.32;38.69
46886;BME280;32622;48.202;11.326;2023-05-20T10:38:09;1015.93;;;15.25;37.86
46886;BME280;32622;48.202;11.326;2023-05-20T10:40:14;1015.90;;;15.38;35.81
46886;BME280;32622;48.202;11.326;2023-05-20T10:42:27;1015.52;;;16.74;35.13
46886;BME280;32622;48.202;11.326;2023-05-20T10:44:40;1015.53;;;16.50;34.39
46886;BME280;32622;48.202;11.326;2023-05-20T10:46:43;1015.54;;;16.62;34.60
46886;BME280;32622;48.202;11.326;2023-05-20T10:48:46;1015.09;;;18.13;33.21
46886;BME280;32622;48.202;11.326;2023-05-20T10:50:49;1015.28;;;17.06;32.48
46886;BME280;32622;48.202;11.326;2023-05-20T10:52:53;1015.54;;;15.93;33.84
46886;BME280;32622;48.202;11.326;2023-05-20T10:54:57;1015.69;;;15.56;35.15
46886;BME280;32622;48.202;11.326;2023-05-20T10:57:05;1015.48;;;16.21;34.43
46886;BME280;32622;48.202;11.326;2023-05-20T10:59:10;1015.33;;;16.67;33.01